KIDA/IDA METAR and TAF weather

Enter ICAO airport designator
Station Type Date Time Source
KIDA METAR 2019/12/07 06:53 UTC NOAA

KIDA 070653Z 00000KT 10SM CLR M05/M06 A3014 RMK AO2 SLP238 T10501061 400111050


Station Type Date Time Source
KIDA Decoded METAR 2019/12/07 06:53 UTC NOAA

IDAHO FALLS REGIONAL AIRPORT, ID, United States (KIDA) 43-31N 112-04W 1453M
Dec 07, 2019 - 01:53 AM EST / 2019.12.07 0653 UTC
Wind: Calm:0
Visibility: 10 mile(s):0
Sky conditions: clear
Temperature: 23.0 F (-5.0 C)
Dew Point: 21.0 F (-6.1 C)
Relative Humidity: 91%
Pressure (altimeter): 30.14 in. Hg (1020 hPa)
ob: KIDA 070653Z 00000KT 10SM CLR M05/M06 A3014 RMK AO2 SLP238 T10501061 400111050
cycle: 7

Station Type Date Time Source
KIDA TAF 2019/12/07 06:36 UTC NOAA

KIDA 070532Z 0706/0806 VRB05KT P6SM SCT050 BKN120
FM071200 VRB04KT 4SM BR VCSH BKN005 OVC010
FM071800 21010G18KT 3SM -SHRASN BR OVC004
FM080100 20011KT 6SM -SHRA BR OVC004

Example: see airport list